sensor_id;sensor_type;location;lat;lon;timestamp;noise_LAeq;noise_LA_min;noise_LA_max;noise_LA01;noise_LA95
40103;Laerm;25814;48.550;9.108;2023-04-30T00:02:23;30.85;29.86;32.77;;
40103;Laerm;25814;48.550;9.108;2023-04-30T00:05:09;30.82;29.94;34.10;;
40103;Laerm;25814;48.550;9.108;2023-04-30T00:07:55;30.82;29.91;35.05;;
40103;Laerm;25814;48.550;9.108;2023-04-30T00:10:41;30.86;29.74;38.44;;
40103;Laerm;25814;48.550;9.108;2023-04-30T00:13:27;31.08;30.07;33.87;;
40103;Laerm;25814;48.550;9.108;2023-04-30T00:16:13;31.02;30.03;34.97;;
40103;Laerm;25814;48.550;9.108;2023-04-30T00:18:59;30.99;29.84;47.13;;
40103;Laerm;25814;48.550;9.108;2023-04-30T00:21:45;33.08;29.86;45.94;;
40103;Laerm;25814;48.550;9.108;2023-04-30T00:24:31;30.88;29.84;32.89;;
40103;Laerm;25814;48.550;9.108;2023-04-30T00:27:18;32.65;30.11;41.48;;
40103;Laerm;25814;48.550;9.108;2023-04-30T00:30:04;31.51;30.01;34.33;;
40103;Laerm;25814;48.550;9.108;2023-04-30T00:32:51;32.28;29.96;34.36;;
40103;Laerm;25814;48.550;9.108;2023-04-30T00:35:37;30.81;29.85;32.64;;
40103;Laerm;25814;48.550;9.108;2023-04-30T00:38:23;30.81;29.94;32.44;;
40103;Laerm;25814;48.550;9.108;2023-04-30T00:41:09;30.87;29.87;32.71;;
40103;Laerm;25814;48.550;9.108;2023-04-30T00:43:55;31.54;30.03;45.86;;
40103;Laerm;25814;48.550;9.108;2023-04-30T00:46:41;30.79;29.80;32.84;;
40103;Laerm;25814;48.550;9.108;2023-04-30T00:49:27;30.78;29.74;32.86;;
40103;Laerm;25814;48.550;9.108;2023-04-30T00:52:13;30.84;29.83;32.48;;
40103;Laerm;25814;48.550;9.108;2023-04-30T00:55:00;30.81;29.82;32.56;;
40103;Laerm;25814;48.550;9.108;2023-04-30T00:57:46;30.76;29.80;33.02;;
40103;Laerm;25814;48.550;9.108;2023-04-30T01:00:33;30.83;29.94;32.91;;
40103;Laerm;25814;48.550;9.108;2023-04-30T01:03:20;30.78;29.95;32.62;;
40103;Laerm;25814;48.550;9.108;2023-04-30T01:06:07;30.83;29.98;32.69;;
40103;Laerm;25814;48.550;9.108;2023-04-30T01:08:53;30.87;29.81;32.75;;
40103;Laerm;25814;48.550;9.108;2023-04-30T01:12:07;30.78;29.96;32.44;;
40103;Laerm;25814;48.550;9.108;2023-04-30T01:21:06;33.64;29.93;46.89;;
40103;Laerm;25814;48.550;9.108;2023-04-30T01:27:22;31.38;29.94;34.52;;
40103;Laerm;25814;48.550;9.108;2023-04-30T01:30:10;32.20;30.02;33.98;;
40103;Laerm;25814;48.550;9.108;2023-04-30T01:32:58;30.89;29.91;33.01;;
40103;Laerm;25814;48.550;9.108;2023-04-30T01:42:43;30.83;29.88;32.93;;
40103;Laerm;25814;48.550;9.108;2023-04-30T01:48:45;31.03;29.92;48.13;;
40103;Laerm;25814;48.550;9.108;2023-04-30T01:51:43;30.94;29.85;33.42;;
40103;Laerm;25814;48.550;9.108;2023-04-30T01:54:48;30.97;29.71;44.50;;
40103;Laerm;25814;48.550;9.108;2023-04-30T01:57:48;31.03;29.92;35.19;;
40103;Laerm;25814;48.550;9.108;2023-04-30T02:00:37;30.97;29.79;33.64;;
40103;Laerm;25814;48.550;9.108;2023-04-30T02:03:23;30.89;29.98;32.85;;
40103;Laerm;25814;48.550;9.108;2023-04-30T02:06:09;31.17;30.08;46.45;;
40103;Laerm;25814;48.550;9.108;2023-04-30T02:08:56;31.08;30.04;33.42;;
40103;Laerm;25814;48.550;9.108;2023-04-30T02:11:50;31.16;29.99;47.52;;
40103;Laerm;25814;48.550;9.108;2023-04-30T02:14:36;31.70;29.85;49.78;;
40103;Laerm;25814;48.550;9.108;2023-04-30T02:17:22;30.97;29.94;33.16;;
40103;Laerm;25814;48.550;9.108;2023-04-30T02:20:09;33.79;30.11;45.47;;
40103;Laerm;25814;48.550;9.108;2023-04-30T02:22:55;31.04;29.87;33.27;;
40103;Laerm;25814;48.550;9.108;2023-04-30T02:25:42;32.09;29.97;34.78;;
40103;Laerm;25814;48.550;9.108;2023-04-30T02:28:29;32.08;29.97;35.14;;
40103;Laerm;25814;48.550;9.108;2023-04-30T02:31:15;31.36;30.16;48.43;;
40103;Laerm;25814;48.550;9.108;2023-04-30T02:34:01;31.13;30.18;33.31;;
40103;Laerm;25814;48.550;9.108;2023-04-30T02:36:47;31.19;30.19;33.53;;
40103;Laerm;25814;48.550;9.108;2023-04-30T02:39:33;31.56;30.17;37.27;;
40103;Laerm;25814;48.550;9.108;2023-04-30T02:42:19;31.96;30.07;35.17;;
40103;Laerm;25814;48.550;9.108;2023-04-30T02:45:05;31.06;29.92;33.28;;
40103;Laerm;25814;48.550;9.108;2023-04-30T02:47:52;31.44;30.17;46.99;;
40103;Laerm;25814;48.550;9.108;2023-04-30T02:50:38;31.37;30.18;37.85;;
40103;Laerm;25814;48.550;9.108;2023-04-30T02:53:24;31.86;29.96;37.11;;
40103;Laerm;25814;48.550;9.108;2023-04-30T02:56:10;31.30;30.02;36.12;;
40103;Laerm;25814;48.550;9.108;2023-04-30T02:58:56;31.51;30.01;35.65;;
40103;Laerm;25814;48.550;9.108;2023-04-30T03:01:42;31.83;30.26;37.25;;
40103;Laerm;25814;48.550;9.108;2023-04-30T03:04:28;32.17;30.47;36.93;;
40103;Laerm;25814;48.550;9.108;2023-04-30T03:07:14;32.34;30.54;38.86;;
40103;Laerm;25814;48.550;9.108;2023-04-30T03:10:00;34.03;30.88;49.22;;
40103;Laerm;25814;48.550;9.108;2023-04-30T03:12:47;37.22;31.12;51.09;;
40103;Laerm;25814;48.550;9.108;2023-04-30T03:15:35;39.78;31.04;50.72;;
40103;Laerm;25814;48.550;9.108;2023-04-30T03:18:55;57.67;31.61;76.02;;
40103;Laerm;25814;48.550;9.108;2023-04-30T03:22:24;52.22;32.10;67.53;;
40103;Laerm;25814;48.550;9.108;2023-04-30T03:25:51;53.96;32.93;67.95;;
40103;Laerm;25814;48.550;9.108;2023-04-30T03:29:18;53.32;32.15;67.23;;
40103;Laerm;25814;48.550;9.108;2023-04-30T03:32:45;51.63;32.88;64.55;;
40103;Laerm;25814;48.550;9.108;2023-04-30T03:36:12;50.36;31.43;62.82;;
40103;Laerm;25814;48.550;9.108;2023-04-30T03:39:39;50.50;31.60;65.01;;
40103;Laerm;25814;48.550;9.108;2023-04-30T03:43:06;40.10;31.69;54.78;;
40103;Laerm;25814;48.550;9.108;2023-04-30T03:46:32;35.93;31.41;46.47;;
40103;Laerm;25814;48.550;9.108;2023-04-30T03:49:59;40.68;31.15;56.70;;
40103;Laerm;25814;48.550;9.108;2023-04-30T03:53:26;40.80;31.29;60.27;;
40103;Laerm;25814;48.550;9.108;2023-04-30T03:56:53;36.90;31.29;56.26;;
40103;Laerm;25814;48.550;9.108;2023-04-30T04:00:21;34.69;31.03;44.93;;
40103;Laerm;25814;48.550;9.108;2023-04-30T04:03:48;38.43;31.19;50.90;;
40103;Laerm;25814;48.550;9.108;2023-04-30T04:07:15;34.56;30.56;42.20;;
40103;Laerm;25814;48.550;9.108;2023-04-30T04:10:42;39.54;31.00;50.28;;
40103;Laerm;25814;48.550;9.108;2023-04-30T04:14:09;34.54;31.11;40.96;;
40103;Laerm;25814;48.550;9.108;2023-04-30T04:16:55;34.78;31.57;41.11;;
40103;Laerm;25814;48.550;9.108;2023-04-30T04:19:42;36.15;30.68;44.74;;
40103;Laerm;25814;48.550;9.108;2023-04-30T04:22:28;35.91;30.71;49.53;;
40103;Laerm;25814;48.550;9.108;2023-04-30T04:25:15;46.31;30.99;58.94;;
40103;Laerm;25814;48.550;9.108;2023-04-30T04:28:02;37.20;30.90;53.01;;
40103;Laerm;25814;48.550;9.108;2023-04-30T04:30:48;42.26;30.73;63.29;;
40103;Laerm;25814;48.550;9.108;2023-04-30T04:34:04;49.41;30.75;67.05;;
40103;Laerm;25814;48.550;9.108;2023-04-30T04:37:31;34.21;31.35;42.33;;
40103;Laerm;25814;48.550;9.108;2023-04-30T04:40:58;43.66;30.84;56.51;;
40103;Laerm;25814;48.550;9.108;2023-04-30T04:44:25;40.53;31.03;54.88;;
40103;Laerm;25814;48.550;9.108;2023-04-30T04:47:52;35.31;30.84;42.23;;
40103;Laerm;25814;48.550;9.108;2023-04-30T04:51:19;44.86;31.13;69.66;;
40103;Laerm;25814;48.550;9.108;2023-04-30T04:54:46;45.28;31.08;57.27;;
40103;Laerm;25814;48.550;9.108;2023-04-30T04:58:13;36.21;30.84;47.85;;
40103;Laerm;25814;48.550;9.108;2023-04-30T05:01:40;36.39;30.68;48.15;;
40103;Laerm;25814;48.550;9.108;2023-04-30T05:05:07;33.96;30.82;52.59;;
40103;Laerm;25814;48.550;9.108;2023-04-30T05:08:34;36.24;31.01;57.88;;
40103;Laerm;25814;48.550;9.108;2023-04-30T05:12:01;35.72;30.90;49.11;;
40103;Laerm;25814;48.550;9.108;2023-04-30T05:15:28;34.11;31.06;41.30;;
40103;Laerm;25814;48.550;9.108;2023-04-30T05:18:15;39.48;30.97;60.79;;
40103;Laerm;25814;48.550;9.108;2023-04-30T05:21:01;34.68;31.50;45.08;;
40103;Laerm;25814;48.550;9.108;2023-04-30T05:23:48;34.91;31.51;47.87;;
40103;Laerm;25814;48.550;9.108;2023-04-30T05:26:34;35.99;31.21;48.74;;
40103;Laerm;25814;48.550;9.108;2023-04-30T05:29:52;52.36;31.03;71.19;;
40103;Laerm;25814;48.550;9.108;2023-04-30T05:33:19;40.55;30.96;61.21;;
40103;Laerm;25814;48.550;9.108;2023-04-30T05:36:46;41.37;32.47;61.09;;
40103;Laerm;25814;48.550;9.108;2023-04-30T05:40:13;43.20;32.35;56.15;;
40103;Laerm;25814;48.550;9.108;2023-04-30T05:43:40;35.40;32.55;44.34;;
40103;Laerm;25814;48.550;9.108;2023-04-30T05:47:07;34.78;32.68;43.39;;
40103;Laerm;25814;48.550;9.108;2023-04-30T05:50:34;36.66;32.63;49.04;;
40103;Laerm;25814;48.550;9.108;2023-04-30T05:54:01;33.22;30.54;39.67;;
40103;Laerm;25814;48.550;9.108;2023-04-30T05:57:28;39.05;30.89;50.23;;
40103;Laerm;25814;48.550;9.108;2023-04-30T06:00:55;36.41;31.19;51.27;;
40103;Laerm;25814;48.550;9.108;2023-04-30T06:04:22;34.79;30.83;48.31;;
40103;Laerm;25814;48.550;9.108;2023-04-30T06:07:49;37.13;30.71;54.00;;
40103;Laerm;25814;48.550;9.108;2023-04-30T06:11:16;34.85;31.12;50.43;;
40103;Laerm;25814;48.550;9.108;2023-04-30T06:14:42;34.69;30.77;49.74;;
40103;Laerm;25814;48.550;9.108;2023-04-30T06:17:30;34.78;30.87;53.84;;
40103;Laerm;25814;48.550;9.108;2023-04-30T06:20:16;35.05;31.51;42.25;;
40103;Laerm;25814;48.550;9.108;2023-04-30T06:23:02;37.23;31.32;58.65;;
40103;Laerm;25814;48.550;9.108;2023-04-30T06:25:48;40.10;30.93;61.06;;
40103;Laerm;25814;48.550;9.108;2023-04-30T06:28:34;35.01;30.65;53.52;;
40103;Laerm;25814;48.550;9.108;2023-04-30T06:31:21;45.43;30.81;60.11;;
40103;Laerm;25814;48.550;9.108;2023-04-30T06:34:32;47.17;31.97;59.99;;
40103;Laerm;25814;48.550;9.108;2023-04-30T06:37:59;39.89;32.28;51.94;;
40103;Laerm;25814;48.550;9.108;2023-04-30T06:41:26;49.43;31.85;70.69;;
40103;Laerm;25814;48.550;9.108;2023-04-30T06:44:53;33.37;31.61;41.73;;
40103;Laerm;25814;48.550;9.108;2023-04-30T06:48:20;35.32;31.59;49.19;;
40103;Laerm;25814;48.550;9.108;2023-04-30T06:51:48;39.68;31.74;54.44;;
40103;Laerm;25814;48.550;9.108;2023-04-30T06:55:15;34.35;30.80;43.27;;
40103;Laerm;25814;48.550;9.108;2023-04-30T06:58:42;33.95;31.29;45.65;;
40103;Laerm;25814;48.550;9.108;2023-04-30T07:02:09;36.40;31.42;43.28;;
40103;Laerm;25814;48.550;9.108;2023-04-30T07:05:36;35.66;30.12;44.57;;
40103;Laerm;25814;48.550;9.108;2023-04-30T07:09:03;36.22;30.42;52.75;;
40103;Laerm;25814;48.550;9.108;2023-04-30T07:12:30;34.73;30.05;49.43;;
40103;Laerm;25814;48.550;9.108;2023-04-30T07:15:57;35.18;29.98;50.70;;
40103;Laerm;25814;48.550;9.108;2023-04-30T07:18:43;34.40;29.86;45.60;;
40103;Laerm;25814;48.550;9.108;2023-04-30T07:21:33;35.97;29.50;45.38;;
40103;Laerm;25814;48.550;9.108;2023-04-30T07:24:19;34.14;29.42;48.87;;
40103;Laerm;25814;48.550;9.108;2023-04-30T07:27:05;34.96;29.40;48.79;;
40103;Laerm;25814;48.550;9.108;2023-04-30T07:29:51;34.51;29.37;47.53;;
40103;Laerm;25814;48.550;9.108;2023-04-30T07:32:37;35.91;30.43;45.25;;
40103;Laerm;25814;48.550;9.108;2023-04-30T07:35:25;34.77;30.27;48.33;;
40103;Laerm;25814;48.550;9.108;2023-04-30T07:38:11;43.08;30.74;62.07;;
40103;Laerm;25814;48.550;9.108;2023-04-30T07:40:57;34.48;30.14;48.11;;
40103;Laerm;25814;48.550;9.108;2023-04-30T07:43:43;33.10;29.69;41.34;;
40103;Laerm;25814;48.550;9.108;2023-04-30T07:46:29;35.55;30.03;46.21;;
40103;Laerm;25814;48.550;9.108;2023-04-30T07:49:15;37.73;30.37;48.63;;
40103;Laerm;25814;48.550;9.108;2023-04-30T07:52:01;36.72;31.63;48.46;;
40103;Laerm;25814;48.550;9.108;2023-04-30T07:54:47;36.30;30.09;47.73;;
40103;Laerm;25814;48.550;9.108;2023-04-30T07:57:34;42.60;31.36;62.54;;
40103;Laerm;25814;48.550;9.108;2023-04-30T08:00:20;37.19;32.15;48.58;;
40103;Laerm;25814;48.550;9.108;2023-04-30T08:03:07;36.66;29.39;48.01;;
40103;Laerm;25814;48.550;9.108;2023-04-30T08:05:53;32.73;29.60;40.96;;
40103;Laerm;25814;48.550;9.108;2023-04-30T08:08:39;41.36;30.20;62.46;;
40103;Laerm;25814;48.550;9.108;2023-04-30T08:11:26;35.56;30.13;45.37;;
40103;Laerm;25814;48.550;9.108;2023-04-30T08:14:12;33.36;29.43;48.41;;
40103;Laerm;25814;48.550;9.108;2023-04-30T08:16:58;39.48;29.56;52.08;;
40103;Laerm;25814;48.550;9.108;2023-04-30T08:19:45;34.67;30.11;51.66;;
40103;Laerm;25814;48.550;9.108;2023-04-30T08:22:31;36.43;30.26;49.49;;
40103;Laerm;25814;48.550;9.108;2023-04-30T08:25:18;36.59;30.65;50.94;;
40103;Laerm;25814;48.550;9.108;2023-04-30T08:28:05;35.54;29.89;41.87;;
40103;Laerm;25814;48.550;9.108;2023-04-30T08:30:51;35.20;29.82;48.82;;
40103;Laerm;25814;48.550;9.108;2023-04-30T08:33:37;34.95;30.74;49.95;;
40103;Laerm;25814;48.550;9.108;2023-04-30T08:36:25;35.03;30.78;47.66;;
40103;Laerm;25814;48.550;9.108;2023-04-30T08:39:11;35.06;30.61;48.12;;
40103;Laerm;25814;48.550;9.108;2023-04-30T08:42:01;35.42;30.48;46.46;;
40103;Laerm;25814;48.550;9.108;2023-04-30T08:44:48;40.67;31.07;62.84;;
40103;Laerm;25814;48.550;9.108;2023-04-30T08:47:36;37.76;30.96;48.16;;
40103;Laerm;25814;48.550;9.108;2023-04-30T08:50:22;38.01;30.55;58.47;;
40103;Laerm;25814;48.550;9.108;2023-04-30T08:53:10;37.14;31.01;48.23;;
40103;Laerm;25814;48.550;9.108;2023-04-30T08:55:59;35.53;30.73;46.63;;
40103;Laerm;25814;48.550;9.108;2023-04-30T08:58:45;40.03;30.23;55.08;;
40103;Laerm;25814;48.550;9.108;2023-04-30T09:01:31;34.46;30.01;43.28;;
40103;Laerm;25814;48.550;9.108;2023-04-30T09:04:18;38.18;29.82;61.17;;
40103;Laerm;25814;48.550;9.108;2023-04-30T09:07:43;45.18;30.11;69.43;;
40103;Laerm;25814;48.550;9.108;2023-04-30T09:11:25;36.98;30.80;48.44;;
40103;Laerm;25814;48.550;9.108;2023-04-30T09:15:03;34.82;30.52;48.05;;
40103;Laerm;25814;48.550;9.108;2023-04-30T09:18:38;38.72;30.89;51.50;;
40103;Laerm;25814;48.550;9.108;2023-04-30T09:22:22;35.97;30.94;46.92;;
40103;Laerm;25814;48.550;9.108;2023-04-30T09:25:49;38.01;31.31;59.77;;
40103;Laerm;25814;48.550;9.108;2023-04-30T09:29:16;40.20;32.00;49.55;;
40103;Laerm;25814;48.550;9.108;2023-04-30T09:32:54;37.03;31.21;43.36;;
40103;Laerm;25814;48.550;9.108;2023-04-30T09:36:21;35.13;30.22;53.33;;
40103;Laerm;25814;48.550;9.108;2023-04-30T09:39:53;36.33;30.98;52.66;;
40103;Laerm;25814;48.550;9.108;2023-04-30T09:43:20;43.81;31.28;55.40;;
40103;Laerm;25814;48.550;9.108;2023-04-30T09:46:49;35.69;30.55;49.61;;
40103;Laerm;25814;48.550;9.108;2023-04-30T09:50:17;35.63;30.59;48.54;;
40103;Laerm;25814;48.550;9.108;2023-04-30T09:53:44;36.81;30.29;50.35;;
40103;Laerm;25814;48.550;9.108;2023-04-30T09:56:34;35.32;30.91;48.12;;
40103;Laerm;25814;48.550;9.108;2023-04-30T09:59:32;37.56;31.28;45.23;;
40103;Laerm;25814;48.550;9.108;2023-04-30T10:02:20;37.25;30.38;51.38;;
40103;Laerm;25814;48.550;9.108;2023-04-30T10:05:08;34.58;30.38;53.38;;
40103;Laerm;25814;48.550;9.108;2023-04-30T10:07:54;33.52;30.27;42.86;;
40103;Laerm;25814;48.550;9.108;2023-04-30T10:10:44;44.94;30.16;70.85;;
40103;Laerm;25814;48.550;9.108;2023-04-30T10:13:58;34.16;30.02;44.28;;
40103;Laerm;25814;48.550;9.108;2023-04-30T10:16:59;42.12;30.12;63.01;;
40103;Laerm;25814;48.550;9.108;2023-04-30T10:19:51;39.81;31.23;58.54;;
40103;Laerm;25814;48.550;9.108;2023-04-30T10:22:39;36.10;30.45;46.80;;
40103;Laerm;25814;48.550;9.108;2023-04-30T10:25:27;34.77;29.67;50.68;;
40103;Laerm;25814;48.550;9.108;2023-04-30T10:28:15;33.57;30.03;45.06;;
40103;Laerm;25814;48.550;9.108;2023-04-30T10:31:03;39.56;30.28;54.68;;
40103;Laerm;25814;48.550;9.108;2023-04-30T10:37:02;36.18;30.84;43.60;;
40103;Laerm;25814;48.550;9.108;2023-04-30T10:39:51;41.91;31.03;54.29;;
40103;Laerm;25814;48.550;9.108;2023-04-30T10:42:46;45.70;31.31;59.31;;
40103;Laerm;25814;48.550;9.108;2023-04-30T10:45:37;45.48;30.09;60.58;;
40103;Laerm;25814;48.550;9.108;2023-04-30T10:48:24;43.56;31.94;58.31;;
40103;Laerm;25814;48.550;9.108;2023-04-30T10:51:11;38.05;33.67;50.68;;
40103;Laerm;25814;48.550;9.108;2023-04-30T10:53:57;44.28;34.57;58.57;;
40103;Laerm;25814;48.550;9.108;2023-04-30T10:56:44;39.55;35.23;54.77;;
40103;Laerm;25814;48.550;9.108;2023-04-30T10:59:33;44.39;34.46;58.30;;
40103;Laerm;25814;48.550;9.108;2023-04-30T11:02:19;39.66;35.58;48.74;;
40103;Laerm;25814;48.550;9.108;2023-04-30T11:07:58;41.07;32.17;61.86;;
40103;Laerm;25814;48.550;9.108;2023-04-30T11:10:58;40.71;32.80;50.61;;
40103;Laerm;25814;48.550;9.108;2023-04-30T11:14:21;42.21;31.62;63.45;;
40103;Laerm;25814;48.550;9.108;2023-04-30T11:17:49;35.73;30.84;42.66;;
40103;Laerm;25814;48.550;9.108;2023-04-30T11:21:19;35.82;30.67;48.68;;
40103;Laerm;25814;48.550;9.108;2023-04-30T11:28:26;36.32;30.18;51.60;;
40103;Laerm;25814;48.550;9.108;2023-04-30T11:31:55;36.06;30.99;47.15;;
40103;Laerm;25814;48.550;9.108;2023-04-30T11:35:22;44.53;30.79;62.93;;
40103;Laerm;25814;48.550;9.108;2023-04-30T11:38:51;37.07;30.29;60.68;;
40103;Laerm;25814;48.550;9.108;2023-04-30T11:42:19;38.56;30.91;48.13;;
40103;Laerm;25814;48.550;9.108;2023-04-30T11:46:12;38.00;30.76;44.83;;
40103;Laerm;25814;48.550;9.108;2023-04-30T11:49:42;45.91;32.38;65.26;;
40103;Laerm;25814;48.550;9.108;2023-04-30T11:53:09;39.19;31.97;46.06;;
40103;Laerm;25814;48.550;9.108;2023-04-30T11:56:38;41.83;31.41;59.79;;
40103;Laerm;25814;48.550;9.108;2023-04-30T11:59:25;33.86;30.25;48.02;;
40103;Laerm;25814;48.550;9.108;2023-04-30T12:02:15;36.44;30.57;43.45;;
40103;Laerm;25814;48.550;9.108;2023-04-30T12:05:01;37.72;30.09;47.01;;
40103;Laerm;25814;48.550;9.108;2023-04-30T12:07:54;37.83;32.19;45.59;;
40103;Laerm;25814;48.550;9.108;2023-04-30T12:10:41;43.39;30.91;57.69;;
40103;Laerm;25814;48.550;9.108;2023-04-30T12:13:30;41.60;32.67;53.42;;
40103;Laerm;25814;48.550;9.108;2023-04-30T12:16:16;37.16;30.22;47.35;;
40103;Laerm;25814;48.550;9.108;2023-04-30T12:19:02;39.28;30.20;52.15;;
40103;Laerm;25814;48.550;9.108;2023-04-30T12:21:49;37.00;30.62;44.67;;
40103;Laerm;25814;48.550;9.108;2023-04-30T12:25:15;45.69;30.69;63.78;;
40103;Laerm;25814;48.550;9.108;2023-04-30T12:28:46;45.80;32.12;60.90;;
40103;Laerm;25814;48.550;9.108;2023-04-30T12:32:17;40.23;30.67;60.69;;
40103;Laerm;25814;48.550;9.108;2023-04-30T12:35:44;38.32;31.08;55.55;;
40103;Laerm;25814;48.550;9.108;2023-04-30T12:39:13;43.60;31.05;60.35;;
40103;Laerm;25814;48.550;9.108;2023-04-30T12:42:43;46.04;30.89;63.70;;
40103;Laerm;25814;48.550;9.108;2023-04-30T12:46:25;37.66;30.63;55.64;;
40103;Laerm;25814;48.550;9.108;2023-04-30T12:49:53;40.09;31.64;54.56;;
40103;Laerm;25814;48.550;9.108;2023-04-30T12:53:21;39.14;30.76;56.16;;
40103;Laerm;25814;48.550;9.108;2023-04-30T13:00:28;39.69;30.93;56.68;;
40103;Laerm;25814;48.550;9.108;2023-04-30T13:03:55;40.43;31.83;49.92;;
40103;Laerm;25814;48.550;9.108;2023-04-30T13:07:22;38.98;31.44;53.54;;
40103;Laerm;25814;48.550;9.108;2023-04-30T13:10:49;45.06;32.45;61.58;;
40103;Laerm;25814;48.550;9.108;2023-04-30T13:14:00;45.61;30.65;66.09;;
40103;Laerm;25814;48.550;9.108;2023-04-30T13:17:27;45.06;31.94;60.45;;
40103;Laerm;25814;48.550;9.108;2023-04-30T13:20:54;45.87;32.85;69.97;;
40103;Laerm;25814;48.550;9.108;2023-04-30T13:24:21;44.04;31.29;62.39;;
40103;Laerm;25814;48.550;9.108;2023-04-30T13:27:48;40.16;31.72;56.90;;
40103;Laerm;25814;48.550;9.108;2023-04-30T13:31:15;41.45;31.59;56.76;;
40103;Laerm;25814;48.550;9.108;2023-04-30T13:34:42;46.46;30.32;64.72;;
40103;Laerm;25814;48.550;9.108;2023-04-30T13:38:10;41.22;30.51;56.66;;
40103;Laerm;25814;48.550;9.108;2023-04-30T13:41:37;40.96;30.33;64.17;;
40103;Laerm;25814;48.550;9.108;2023-04-30T13:45:07;35.33;30.51;48.08;;
40103;Laerm;25814;48.550;9.108;2023-04-30T13:48:34;39.00;30.74;48.80;;
40103;Laerm;25814;48.550;9.108;2023-04-30T13:52:02;36.48;30.57;47.32;;
40103;Laerm;25814;48.550;9.108;2023-04-30T13:55:29;42.03;31.26;63.09;;
40103;Laerm;25814;48.550;9.108;2023-04-30T13:58:17;37.15;30.00;47.70;;
40103;Laerm;25814;48.550;9.108;2023-04-30T14:01:03;36.67;31.07;43.83;;
40103;Laerm;25814;48.550;9.108;2023-04-30T14:03:49;43.47;31.55;64.32;;
40103;Laerm;25814;48.550;9.108;2023-04-30T14:06:36;41.10;31.56;55.75;;
40103;Laerm;25814;48.550;9.108;2023-04-30T14:09:23;38.69;31.66;46.77;;
40103;Laerm;25814;48.550;9.108;2023-04-30T14:12:09;38.44;31.30;49.67;;
40103;Laerm;25814;48.550;9.108;2023-04-30T14:14:55;37.67;31.09;50.57;;
40103;Laerm;25814;48.550;9.108;2023-04-30T14:17:42;36.06;30.62;44.77;;
40103;Laerm;25814;48.550;9.108;2023-04-30T14:20:28;37.99;31.58;50.91;;
40103;Laerm;25814;48.550;9.108;2023-04-30T14:23:14;37.44;31.04;49.17;;
40103;Laerm;25814;48.550;9.108;2023-04-30T14:26:00;40.47;30.96;65.32;;
40103;Laerm;25814;48.550;9.108;2023-04-30T14:28:46;40.42;30.36;59.07;;
40103;Laerm;25814;48.550;9.108;2023-04-30T14:31:32;41.43;33.68;54.83;;
40103;Laerm;25814;48.550;9.108;2023-04-30T14:34:18;37.24;31.16;47.84;;
40103;Laerm;25814;48.550;9.108;2023-04-30T14:37:38;47.52;31.46;74.09;;
40103;Laerm;25814;48.550;9.108;2023-04-30T14:41:05;43.21;31.45;56.46;;
40103;Laerm;25814;48.550;9.108;2023-04-30T14:44:32;40.80;31.33;54.33;;
40103;Laerm;25814;48.550;9.108;2023-04-30T14:47:59;47.19;31.88;65.80;;
40103;Laerm;25814;48.550;9.108;2023-04-30T14:51:27;36.66;31.11;47.74;;
40103;Laerm;25814;48.550;9.108;2023-04-30T14:54:53;37.67;32.39;47.45;;
40103;Laerm;25814;48.550;9.108;2023-04-30T14:58:21;37.07;32.35;47.17;;
40103;Laerm;25814;48.550;9.108;2023-04-30T15:01:48;38.65;33.13;46.28;;
40103;Laerm;25814;48.550;9.108;2023-04-30T15:05:16;40.07;33.11;49.23;;
40103;Laerm;25814;48.550;9.108;2023-04-30T15:08:43;38.55;31.97;46.91;;
40103;Laerm;25814;48.550;9.108;2023-04-30T15:12:10;36.73;30.97;52.94;;
40103;Laerm;25814;48.550;9.108;2023-04-30T15:15:37;34.07;30.48;44.25;;
40103;Laerm;25814;48.550;9.108;2023-04-30T15:19:04;38.55;32.42;46.47;;
40103;Laerm;25814;48.550;9.108;2023-04-30T15:21:50;36.75;32.39;47.24;;
40103;Laerm;25814;48.550;9.108;2023-04-30T15:25:17;60.90;32.88;83.61;;
40103;Laerm;25814;48.550;9.108;2023-04-30T15:28:43;40.91;31.53;52.80;;
40103;Laerm;25814;48.550;9.108;2023-04-30T15:32:11;40.95;31.39;53.35;;
40103;Laerm;25814;48.550;9.108;2023-04-30T15:35:39;37.00;30.60;45.99;;
40103;Laerm;25814;48.550;9.108;2023-04-30T15:39:06;36.37;30.11;48.94;;
40103;Laerm;25814;48.550;9.108;2023-04-30T15:42:33;48.11;30.34;73.98;;
40103;Laerm;25814;48.550;9.108;2023-04-30T15:46:00;42.97;30.71;65.12;;
40103;Laerm;25814;48.550;9.108;2023-04-30T15:49:28;42.32;32.45;56.07;;
40103;Laerm;25814;48.550;9.108;2023-04-30T15:52:55;43.10;31.88;55.51;;
40103;Laerm;25814;48.550;9.108;2023-04-30T15:56:22;37.44;30.76;48.37;;
40103;Laerm;25814;48.550;9.108;2023-04-30T15:59:51;50.66;32.34;68.92;;
40103;Laerm;25814;48.550;9.108;2023-04-30T16:03:20;39.13;31.00;55.11;;
40103;Laerm;25814;48.550;9.108;2023-04-30T16:06:48;36.16;30.88;52.21;;
40103;Laerm;25814;48.550;9.108;2023-04-30T16:10:15;38.80;30.31;56.58;;
40103;Laerm;25814;48.550;9.108;2023-04-30T16:13:42;34.29;29.95;45.54;;
40103;Laerm;25814;48.550;9.108;2023-04-30T16:17:09;36.15;30.23;56.06;;
40103;Laerm;25814;48.550;9.108;2023-04-30T16:20:36;44.64;30.31;68.85;;
40103;Laerm;25814;48.550;9.108;2023-04-30T16:24:07;47.57;30.53;67.56;;
40103;Laerm;25814;48.550;9.108;2023-04-30T16:27:35;51.79;31.50;68.75;;
40103;Laerm;25814;48.550;9.108;2023-04-30T16:31:02;38.24;31.01;48.63;;
40103;Laerm;25814;48.550;9.108;2023-04-30T16:34:29;41.61;35.35;62.58;;
40103;Laerm;25814;48.550;9.108;2023-04-30T16:37:56;46.65;36.82;62.59;;
40103;Laerm;25814;48.550;9.108;2023-04-30T16:41:23;40.09;30.36;54.24;;
40103;Laerm;25814;48.550;9.108;2023-04-30T16:44:50;35.82;30.36;46.88;;
40103;Laerm;25814;48.550;9.108;2023-04-30T16:48:17;36.12;30.21;48.60;;
40103;Laerm;25814;48.550;9.108;2023-04-30T16:51:45;35.49;30.54;43.98;;
40103;Laerm;25814;48.550;9.108;2023-04-30T16:55:12;36.90;30.60;60.15;;
40103;Laerm;25814;48.550;9.108;2023-04-30T16:58:39;38.81;30.26;57.75;;
40103;Laerm;25814;48.550;9.108;2023-04-30T17:02:06;41.52;30.43;64.23;;
40103;Laerm;25814;48.550;9.108;2023-04-30T17:05:33;36.72;29.86;52.21;;
40103;Laerm;25814;48.550;9.108;2023-04-30T17:09:00;38.06;31.20;62.99;;
40103;Laerm;25814;48.550;9.108;2023-04-30T17:11:46;38.90;30.69;55.76;;
40103;Laerm;25814;48.550;9.108;2023-04-30T17:14:32;39.20;30.45;56.27;;
40103;Laerm;25814;48.550;9.108;2023-04-30T17:17:18;35.62;30.55;47.98;;
40103;Laerm;25814;48.550;9.108;2023-04-30T17:20:05;37.48;30.58;55.61;;
40103;Laerm;25814;48.550;9.108;2023-04-30T17:22:51;39.95;30.05;60.15;;
40103;Laerm;25814;48.550;9.108;2023-04-30T17:25:40;35.52;29.43;52.52;;
40103;Laerm;25814;48.550;9.108;2023-04-30T17:28:27;35.46;29.98;47.33;;
40103;Laerm;25814;48.550;9.108;2023-04-30T17:31:13;40.72;29.96;66.12;;
40103;Laerm;25814;48.550;9.108;2023-04-30T17:33:59;32.66;29.62;41.64;;
40103;Laerm;25814;48.550;9.108;2023-04-30T17:36:45;42.83;30.27;63.22;;
40103;Laerm;25814;48.550;9.108;2023-04-30T17:40:12;52.26;30.85;74.42;;
40103;Laerm;25814;48.550;9.108;2023-04-30T17:43:39;51.03;30.86;71.95;;
40103;Laerm;25814;48.550;9.108;2023-04-30T17:47:06;51.95;30.44;67.75;;
40103;Laerm;25814;48.550;9.108;2023-04-30T17:50:32;51.60;30.09;66.80;;
40103;Laerm;25814;48.550;9.108;2023-04-30T17:53:59;34.84;29.88;47.80;;
40103;Laerm;25814;48.550;9.108;2023-04-30T17:57:26;33.74;29.60;51.99;;